Terminal Aerodrome Forecast
Issued by NWS

Home | Current Version | Previous Version | Text Only | Print | Product List | Glossary On
Versions: 1 2 3 4 5 6 7 8 9 10 11 12
000
FTUS44 KEPZ 050546
TAFLRU
TAF
KLRU 050546Z 0506/0606 30007KT P6SM VCSH SCT080 BKN150
     FM050800 33007KT P6SM SCT120 BKN250
     FM051800 27010KT P6SM SCT100 BKN180=

USA.gov is the U.S. government's official web portal to all federal, state and local government web resources and services.